createdAt,value
2022-10-22T00:01:11.601Z,77.86
2022-10-22T00:03:41.319Z,77.96
2022-10-22T00:06:09.437Z,78.06
2022-10-22T00:08:37.577Z,78.15
2022-10-22T00:11:23.806Z,77.97
2022-10-22T00:13:51.775Z,77.94
2022-10-22T00:16:20.085Z,77.90
2022-10-22T00:18:48.208Z,78.10
2022-10-22T00:21:16.163Z,77.99
2022-10-22T00:23:44.235Z,77.96
2022-10-22T00:26:12.991Z,77.95
2022-10-22T00:28:41.686Z,78.01
2022-10-22T00:31:10.055Z,77.95
2022-10-22T00:33:37.999Z,77.90
2022-10-22T00:36:06.372Z,77.80
2022-10-22T00:38:34.788Z,78.00
2022-10-22T00:41:02.804Z,77.85
2022-10-22T00:43:30.823Z,77.93
2022-10-22T00:45:58.877Z,77.89
2022-10-22T00:48:29.897Z,77.84
2022-10-22T00:51:06.453Z,77.85
2022-10-22T00:53:41.695Z,77.93
2022-10-22T00:56:10.782Z,77.86
2022-10-22T00:58:52.681Z,77.96
2022-10-22T01:01:25.315Z,77.96
2022-10-22T01:03:53.961Z,77.77
2022-10-22T01:06:26.272Z,77.71
2022-10-22T01:09:09.889Z,77.90
2022-10-22T01:11:52.865Z,78.06
2022-10-22T01:14:45.427Z,77.78
2022-10-22T01:17:28.347Z,77.79
2022-10-22T01:20:08.464Z,77.83
2022-10-22T01:22:43.238Z,77.77
2022-10-22T01:25:19.925Z,77.84
2022-10-22T01:28:23.997Z,77.80
2022-10-22T01:30:56.628Z,77.94
2022-10-22T01:33:26.121Z,77.93
2022-10-22T01:35:55.291Z,77.90
2022-10-22T01:38:25.274Z,77.89
2022-10-22T01:40:54.800Z,77.96
2022-10-22T01:43:22.973Z,77.99
2022-10-22T01:45:54.100Z,77.98
2022-10-22T01:48:40.352Z,77.93
2022-10-22T01:51:29.671Z,77.91
2022-10-22T01:54:08.798Z,77.79
2022-10-22T01:57:03.939Z,77.90
2022-10-22T01:59:45.373Z,77.99
2022-10-22T02:02:23.118Z,77.89
2022-10-22T02:05:03.339Z,77.93
2022-10-22T02:07:39.643Z,77.99
2022-10-22T02:10:09.573Z,77.98
2022-10-22T02:12:39.609Z,77.92
2022-10-22T02:15:09.208Z,78.02
2022-10-22T02:17:39.237Z,78.11
2022-10-22T02:20:17.006Z,78.16
2022-10-22T02:22:46.611Z,78.05
2022-10-22T02:25:15.237Z,78.08
2022-10-22T02:28:26.964Z,78.20
2022-10-22T02:31:00.431Z,78.17
2022-10-22T02:33:32.700Z,78.21
2022-10-22T02:36:02.680Z,78.08
2022-10-22T02:38:33.143Z,78.20
2022-10-22T02:41:01.849Z,78.17
2022-10-22T02:43:30.057Z,78.20
2022-10-22T02:45:58.186Z,78.34
2022-10-22T02:48:26.338Z,78.08
2022-10-22T02:50:54.974Z,78.28
2022-10-22T02:53:23.054Z,78.25
2022-10-22T02:55:51.165Z,78.26
2022-10-22T02:58:19.195Z,78.30
2022-10-22T03:00:48.494Z,78.28
2022-10-22T03:03:16.437Z,78.37
2022-10-22T03:05:44.361Z,78.41
2022-10-22T03:08:13.252Z,78.29
2022-10-22T03:10:41.326Z,78.37
2022-10-22T03:13:09.323Z,78.40
2022-10-22T03:15:37.348Z,78.36
2022-10-22T03:18:05.668Z,78.37
2022-10-22T03:20:33.735Z,78.48
2022-10-22T03:23:02.725Z,78.34
2022-10-22T03:25:34.526Z,78.47
2022-10-22T03:28:07.946Z,78.54
2022-10-22T03:30:36.870Z,78.55
2022-10-22T03:33:04.860Z,78.63
2022-10-22T03:35:37.064Z,78.62
2022-10-22T03:38:05.135Z,78.65
2022-10-22T03:40:33.084Z,78.65
2022-10-22T03:43:01.162Z,78.53
2022-10-22T03:45:29.138Z,78.66
2022-10-22T03:47:57.152Z,78.71
2022-10-22T03:50:25.265Z,78.77
2022-10-22T03:52:53.879Z,78.74
2022-10-22T03:55:21.801Z,78.84
2022-10-22T03:57:50.214Z,78.85
2022-10-22T04:00:18.440Z,78.94
2022-10-22T04:02:46.501Z,78.93
2022-10-22T04:07:47.381Z,79.00
2022-10-22T04:10:15.728Z,79.11
2022-10-22T04:12:43.674Z,79.02
2022-10-22T04:15:11.764Z,79.04
2022-10-22T04:17:40.381Z,79.06
2022-10-22T04:20:10.480Z,79.08
2022-10-22T04:22:38.488Z,79.09
2022-10-22T04:25:06.578Z,79.12
2022-10-22T04:27:35.255Z,79.17
2022-10-22T04:30:05.506Z,79.10
2022-10-22T04:32:33.504Z,79.23
2022-10-22T04:35:01.460Z,79.28
2022-10-22T04:37:29.473Z,79.21
2022-10-22T04:39:58.299Z,79.25
2022-10-22T04:42:26.486Z,79.34
2022-10-22T04:44:54.473Z,79.36
2022-10-22T04:47:22.479Z,79.27
2022-10-22T04:49:50.405Z,79.28
2022-10-22T04:52:18.455Z,79.36
2022-10-22T04:54:47.061Z,79.41
2022-10-22T04:57:15.111Z,79.44
2022-10-22T04:59:43.081Z,79.47
2022-10-22T05:02:11.027Z,79.59
2022-10-22T05:04:39.048Z,79.64
2022-10-22T05:07:07.160Z,79.62
2022-10-22T05:09:35.284Z,79.72
2022-10-22T05:12:03.291Z,79.73
2022-10-22T05:14:31.422Z,79.69
2022-10-22T05:16:59.591Z,79.78
2022-10-22T05:19:30.118Z,79.85
2022-10-22T05:22:00.966Z,79.77
2022-10-22T05:24:30.486Z,79.81
2022-10-22T05:27:00.227Z,79.83
2022-10-22T05:29:28.703Z,79.69
2022-10-22T05:31:57.176Z,79.83
2022-10-22T05:34:25.400Z,79.80
2022-10-22T05:36:53.375Z,79.90
2022-10-22T05:39:21.444Z,79.85
2022-10-22T05:41:49.458Z,80.02
2022-10-22T05:44:17.472Z,80.08
2022-10-22T05:46:45.796Z,80.08
2022-10-22T05:49:15.699Z,80.13
2022-10-22T05:51:43.924Z,80.12
2022-10-22T05:54:20.075Z,80.15
2022-10-22T05:56:48.272Z,80.13
2022-10-22T05:59:16.352Z,80.17
2022-10-22T06:01:44.686Z,80.17
2022-10-22T06:04:13.885Z,80.21
2022-10-22T06:06:51.260Z,80.41
2022-10-22T06:09:31.726Z,80.25
2022-10-22T06:11:59.991Z,80.37
2022-10-22T06:14:29.554Z,80.34
2022-10-22T06:17:00.321Z,80.42
2022-10-22T06:19:30.110Z,80.50
2022-10-22T06:21:58.274Z,80.61
2022-10-22T06:24:26.353Z,80.85
2022-10-22T06:26:54.358Z,80.88
2022-10-22T06:29:22.528Z,81.00
2022-10-22T06:31:51.795Z,80.97
2022-10-22T06:34:19.942Z,81.16
2022-10-22T06:36:48.029Z,81.20
2022-10-22T06:39:18.087Z,80.89
2022-10-22T06:41:47.113Z,80.91
2022-10-22T06:44:19.500Z,80.84
2022-10-22T06:46:52.322Z,80.84
2022-10-22T06:49:21.232Z,80.90
2022-10-22T06:51:53.682Z,80.81
2022-10-22T06:54:23.161Z,80.78
2022-10-22T06:56:51.176Z,80.70
2022-10-22T06:59:19.224Z,80.75
2022-10-22T07:01:47.274Z,80.59
2022-10-22T07:04:15.723Z,80.66
2022-10-22T07:06:43.718Z,80.59
2022-10-22T07:09:11.947Z,80.52
2022-10-22T07:11:45.633Z,80.42
2022-10-22T07:14:14.715Z,80.55
2022-10-22T07:16:43.322Z,80.42
2022-10-22T07:19:11.742Z,80.62
2022-10-22T07:21:40.122Z,80.34
2022-10-22T07:24:08.516Z,80.39
2022-10-22T07:26:37.051Z,80.27
2022-10-22T07:29:06.442Z,80.22
2022-10-22T07:31:34.533Z,80.36
2022-10-22T07:34:02.717Z,80.34
2022-10-22T07:36:30.694Z,80.37
2022-10-22T07:38:59.839Z,80.40
2022-10-22T07:41:29.849Z,80.35
2022-10-22T07:43:58.332Z,80.19
2022-10-22T07:46:27.542Z,80.30
2022-10-22T07:48:55.620Z,80.15
2022-10-22T07:51:23.989Z,80.10
2022-10-22T07:53:52.057Z,80.16
2022-10-22T07:56:20.960Z,80.05
2022-10-22T07:58:49.087Z,80.08
2022-10-22T08:01:17.249Z,80.13
2022-10-22T08:03:45.318Z,80.06
2022-10-22T08:06:15.065Z,79.96
2022-10-22T08:08:47.842Z,80.34
2022-10-22T08:11:16.136Z,79.99
2022-10-22T08:13:45.595Z,79.92
2022-10-22T08:16:15.041Z,79.97
2022-10-22T08:18:43.186Z,79.89
2022-10-22T08:21:12.627Z,79.71
2022-10-22T08:23:40.870Z,79.64
2022-10-22T08:26:09.256Z,79.35
2022-10-22T08:28:37.419Z,79.04
2022-10-22T08:31:07.961Z,78.90
2022-10-22T08:33:37.029Z,78.85
2022-10-22T08:36:06.031Z,78.77
2022-10-22T08:38:35.419Z,78.50
2022-10-22T08:41:18.596Z,78.46
2022-10-22T08:44:14.787Z,77.96
2022-10-22T08:46:55.202Z,77.54
2022-10-22T08:49:28.681Z,77.68
2022-10-22T08:52:00.345Z,77.62
2022-10-22T08:54:54.672Z,77.64
2022-10-22T08:57:51.388Z,77.57
2022-10-22T09:00:36.112Z,77.31
2022-10-22T09:03:41.631Z,77.29
2022-10-22T09:06:18.844Z,77.19
2022-10-22T09:08:47.944Z,77.34
2022-10-22T09:11:20.319Z,77.11
2022-10-22T09:13:49.518Z,76.83
2022-10-22T09:16:22.211Z,76.72
2022-10-22T09:19:18.204Z,76.59
2022-10-22T09:22:04.655Z,76.15
2022-10-22T09:24:39.662Z,76.29
2022-10-22T09:27:13.981Z,76.44
2022-10-22T09:29:43.520Z,76.27
2022-10-22T09:32:11.701Z,76.55
2022-10-22T09:34:39.950Z,76.46
2022-10-22T09:37:10.195Z,76.24
2022-10-22T09:39:41.664Z,76.10
2022-10-22T09:42:12.167Z,75.94
2022-10-22T09:44:43.689Z,75.80
2022-10-22T09:48:00.464Z,75.87
2022-10-22T09:50:41.315Z,75.83
2022-10-22T09:53:13.860Z,75.95
2022-10-22T09:55:43.600Z,75.79
2022-10-22T09:58:14.120Z,75.64
2022-10-22T10:00:45.705Z,75.59
2022-10-22T10:03:23.722Z,75.53
2022-10-22T10:05:55.089Z,75.25
2022-10-22T10:08:24.164Z,75.53
2022-10-22T10:11:08.508Z,75.23
2022-10-22T10:13:51.908Z,75.18
2022-10-22T10:16:31.039Z,75.50
2022-10-22T10:19:11.609Z,75.35
2022-10-22T10:22:05.486Z,75.36
2022-10-22T10:24:48.984Z,75.40
2022-10-22T10:27:25.161Z,75.42
2022-10-22T10:30:10.359Z,75.44
2022-10-22T10:32:41.458Z,75.47
2022-10-22T10:35:28.304Z,75.37
2022-10-22T10:37:59.815Z,75.32
2022-10-22T10:40:43.673Z,75.28
2022-10-22T10:43:38.859Z,75.43
2022-10-22T10:46:19.195Z,75.52
2022-10-22T10:48:57.285Z,75.54
2022-10-22T10:52:02.612Z,75.65
2022-10-22T10:54:55.569Z,75.75
2022-10-22T10:57:59.946Z,75.85
2022-10-22T11:00:36.133Z,76.18
2022-10-22T11:03:38.204Z,76.22
2022-10-22T11:06:21.595Z,76.28
2022-10-22T11:09:02.834Z,76.57
2022-10-22T11:11:40.224Z,76.66
2022-10-22T11:14:14.701Z,76.78
2022-10-22T11:17:11.943Z,76.94
2022-10-22T11:19:51.604Z,77.03
2022-10-22T11:22:29.648Z,77.21
2022-10-22T11:25:18.798Z,77.34
2022-10-22T11:28:06.548Z,77.63
2022-10-22T11:30:41.828Z,77.76
2022-10-22T11:33:18.498Z,77.89
2022-10-22T11:35:48.572Z,78.27
2022-10-22T11:38:22.565Z,78.66
2022-10-22T11:40:55.136Z,78.61
2022-10-22T11:43:52.006Z,79.00
2022-10-22T11:46:19.904Z,78.92
2022-10-22T11:49:06.417Z,79.02
2022-10-22T11:51:39.926Z,79.25
2022-10-22T11:54:26.916Z,79.46
2022-10-22T11:57:17.337Z,79.60
2022-10-22T11:59:54.102Z,79.77
2022-10-22T12:02:28.271Z,79.96
2022-10-22T12:05:19.334Z,80.53
2022-10-22T12:07:58.601Z,80.63
2022-10-22T12:10:29.807Z,80.85
2022-10-22T12:13:24.199Z,81.29
2022-10-22T12:15:57.487Z,81.54
2022-10-22T12:18:41.472Z,81.72
2022-10-22T12:21:14.069Z,81.85
2022-10-22T12:23:44.702Z,82.35
2022-10-22T12:26:27.343Z,82.88
2022-10-22T12:29:03.369Z,83.14
2022-10-22T12:31:35.983Z,83.71
2022-10-22T12:34:04.568Z,83.68
2022-10-22T12:36:37.065Z,83.38
2022-10-22T12:39:13.240Z,83.73
2022-10-22T12:41:41.990Z,84.10
2022-10-22T12:44:16.270Z,83.85
2022-10-22T12:46:47.438Z,84.02
2022-10-22T12:49:22.578Z,83.80
2022-10-22T12:51:50.645Z,84.08
2022-10-22T12:54:27.154Z,84.16
2022-10-22T12:56:56.467Z,84.35
2022-10-22T12:59:39.174Z,84.65
2022-10-22T13:02:27.409Z,84.77
2022-10-22T13:05:14.449Z,84.87
2022-10-22T13:07:48.999Z,85.00
2022-10-22T13:10:25.603Z,85.23
2022-10-22T13:12:59.219Z,85.48
2022-10-22T13:15:35.830Z,85.66
2022-10-22T13:18:23.137Z,85.41
2022-10-22T13:21:01.966Z,85.69
2022-10-22T13:23:33.912Z,85.54
2022-10-22T13:26:17.041Z,85.83
2022-10-22T13:28:54.742Z,86.28
2022-10-22T13:31:29.118Z,86.49
2022-10-22T13:34:03.683Z,86.08
2022-10-22T13:36:34.721Z,86.11
2022-10-22T13:39:04.035Z,86.32
2022-10-22T13:41:34.787Z,86.58
2022-10-22T13:44:03.015Z,86.60
2022-10-22T13:46:31.625Z,86.84
2022-10-22T13:49:00.668Z,86.89
2022-10-22T13:51:35.879Z,87.17
2022-10-22T13:54:09.553Z,86.98
2022-10-22T13:56:37.571Z,87.02
2022-10-22T13:59:05.534Z,87.16
2022-10-22T14:01:33.522Z,87.28
2022-10-22T14:04:04.628Z,87.14
2022-10-22T14:09:14.684Z,87.10
2022-10-22T14:11:43.558Z,87.23
2022-10-22T14:14:14.385Z,87.21
2022-10-22T14:16:42.862Z,87.41
2022-10-22T14:19:16.597Z,87.40
2022-10-22T14:21:44.797Z,87.48
2022-10-22T14:24:13.505Z,87.48
2022-10-22T14:26:42.041Z,87.55
2022-10-22T14:29:11.315Z,87.63
2022-10-22T14:31:42.754Z,87.90
2022-10-22T14:34:13.111Z,87.74
2022-10-22T14:36:43.813Z,87.94
2022-10-22T14:39:13.706Z,87.73
2022-10-22T14:41:42.722Z,87.88
2022-10-22T14:44:14.394Z,88.13
2022-10-22T14:46:44.901Z,87.92
2022-10-22T14:49:13.804Z,88.13
2022-10-22T14:51:42.193Z,88.09
2022-10-22T14:54:10.396Z,88.27
2022-10-22T14:56:38.556Z,88.43
2022-10-22T14:59:06.868Z,88.39
2022-10-22T15:01:35.001Z,88.32
2022-10-22T15:04:03.268Z,88.40
2022-10-22T15:06:31.504Z,88.49
2022-10-22T15:08:59.644Z,88.83
2022-10-22T15:11:28.514Z,88.92
2022-10-22T15:13:56.438Z,88.87
2022-10-22T15:16:24.610Z,88.67
2022-10-22T15:18:53.562Z,89.02
2022-10-22T15:21:22.479Z,89.23
2022-10-22T15:23:50.553Z,88.97
2022-10-22T15:26:19.081Z,88.91
2022-10-22T15:28:47.385Z,89.12
2022-10-22T15:31:15.843Z,88.99
2022-10-22T15:33:44.056Z,89.13
2022-10-22T15:36:16.567Z,89.50
2022-10-22T15:38:44.934Z,89.60
2022-10-22T15:41:13.707Z,89.44
2022-10-22T15:43:42.862Z,89.59
2022-10-22T15:46:17.271Z,89.72
2022-10-22T15:48:46.185Z,89.69
2022-10-22T15:51:18.844Z,89.94
2022-10-22T15:53:52.629Z,90.07
2022-10-22T15:56:21.521Z,90.27
2022-10-22T15:58:53.717Z,90.59
2022-10-22T16:01:21.950Z,90.62
2022-10-22T16:04:00.374Z,90.81
2022-10-22T16:06:33.368Z,90.51
2022-10-22T16:09:03.670Z,90.81
2022-10-22T16:11:32.364Z,91.16
2022-10-22T16:14:01.537Z,91.13
2022-10-22T16:16:32.883Z,91.01
2022-10-22T16:19:01.509Z,91.12
2022-10-22T16:21:30.319Z,90.96
2022-10-22T16:24:05.921Z,91.08
2022-10-22T16:26:35.644Z,90.87
2022-10-22T16:29:05.396Z,91.14
2022-10-22T16:31:33.447Z,91.25
2022-10-22T16:34:01.485Z,91.26
2022-10-22T16:36:29.519Z,91.30
2022-10-22T16:38:57.538Z,91.21
2022-10-22T16:41:26.073Z,90.96
2022-10-22T16:43:55.480Z,91.07
2022-10-22T16:46:23.566Z,91.14
2022-10-22T16:48:52.987Z,91.06
2022-10-22T16:51:24.055Z,91.11
2022-10-22T16:53:52.804Z,91.03
2022-10-22T16:56:21.491Z,91.29
2022-10-22T16:58:53.811Z,91.40
2022-10-22T17:01:26.032Z,91.41
2022-10-22T17:03:57.043Z,91.27
2022-10-22T17:06:25.566Z,91.06
2022-10-22T17:08:54.262Z,91.26
2022-10-22T17:11:24.732Z,91.44
2022-10-22T17:13:54.488Z,91.35
2022-10-22T17:16:24.398Z,91.21
2022-10-22T17:18:54.869Z,91.18
2022-10-22T17:21:24.077Z,91.41
2022-10-22T17:23:58.769Z,91.38
2022-10-22T17:26:27.075Z,91.41
2022-10-22T17:28:55.454Z,91.34
2022-10-22T17:31:23.407Z,91.28
2022-10-22T17:33:53.861Z,91.28
2022-10-22T17:36:23.474Z,91.20
2022-10-22T17:38:57.197Z,91.30
2022-10-22T17:41:30.957Z,91.24
2022-10-22T17:44:01.770Z,91.22
2022-10-22T17:46:31.437Z,91.36
2022-10-22T17:49:05.446Z,91.36
2022-10-22T17:51:33.739Z,91.28
2022-10-22T17:54:03.567Z,91.25
2022-10-22T17:56:34.301Z,91.63
2022-10-22T17:59:02.501Z,91.35
2022-10-22T18:01:33.280Z,91.49
2022-10-22T18:04:04.340Z,91.68
2022-10-22T18:06:32.646Z,92.00
2022-10-22T18:09:04.640Z,91.87
2022-10-22T18:11:34.445Z,92.12
2022-10-22T18:14:02.806Z,92.27
2022-10-22T18:16:30.745Z,92.42
2022-10-22T18:18:58.975Z,92.45
2022-10-22T18:21:31.472Z,92.38
2022-10-22T18:23:59.754Z,92.55
2022-10-22T18:26:27.789Z,92.58
2022-10-22T18:28:57.237Z,92.37
2022-10-22T18:31:27.144Z,92.50
2022-10-22T18:33:57.250Z,92.35
2022-10-22T18:36:26.614Z,92.10
2022-10-22T18:38:56.253Z,92.33
2022-10-22T18:41:24.884Z,92.28
2022-10-22T18:43:56.472Z,92.28
2022-10-22T18:46:25.779Z,92.28
2022-10-22T18:48:58.316Z,92.51
2022-10-22T18:51:30.655Z,92.43
2022-10-22T18:54:11.339Z,92.48
2022-10-22T18:56:47.552Z,92.63
2022-10-22T18:59:19.302Z,92.61
2022-10-22T19:01:47.655Z,92.90
2022-10-22T19:04:15.717Z,92.84
2022-10-22T19:06:45.754Z,92.94
2022-10-22T19:09:15.826Z,92.78
2022-10-22T19:11:45.196Z,92.64
2022-10-22T19:14:17.312Z,92.86
2022-10-22T19:16:45.710Z,92.82
2022-10-22T19:19:17.898Z,92.86
2022-10-22T19:21:46.681Z,92.77
2022-10-22T19:24:16.840Z,92.67
2022-10-22T19:26:46.296Z,93.02
2022-10-22T19:29:16.776Z,92.97
2022-10-22T19:31:45.114Z,92.94
2022-10-22T19:34:14.177Z,93.13
2022-10-22T19:36:42.281Z,93.22
2022-10-22T19:39:10.620Z,93.00
2022-10-22T19:41:39.075Z,93.26
2022-10-22T19:44:07.359Z,93.04
2022-10-22T19:46:35.416Z,92.92
2022-10-22T19:49:04.957Z,92.96
2022-10-22T19:51:34.546Z,93.46
2022-10-22T19:54:06.298Z,93.34
2022-10-22T19:56:36.091Z,93.44
2022-10-22T19:59:05.878Z,93.54
2022-10-22T20:01:34.105Z,93.58
2022-10-22T20:04:09.625Z,93.62
2022-10-22T20:06:37.668Z,93.54
2022-10-22T20:09:06.650Z,93.87
2022-10-22T20:11:34.696Z,93.87
2022-10-22T20:14:02.932Z,93.81
2022-10-22T20:16:31.793Z,94.05
2022-10-22T20:19:02.517Z,94.17
2022-10-22T20:21:30.946Z,94.07
2022-10-22T20:23:59.431Z,94.10
2022-10-22T20:26:28.499Z,93.87
2022-10-22T20:28:58.486Z,93.78
2022-10-22T20:31:28.774Z,94.18
2022-10-22T20:33:59.007Z,94.02
2022-10-22T20:36:28.976Z,94.13
2022-10-22T20:39:02.915Z,94.26
2022-10-22T20:41:37.833Z,94.20
2022-10-22T20:44:06.954Z,94.47
2022-10-22T20:46:37.352Z,94.70
2022-10-22T20:49:09.135Z,94.67
2022-10-22T20:51:38.200Z,94.90
2022-10-22T20:54:08.096Z,94.84
2022-10-22T20:56:39.785Z,94.64
2022-10-22T20:59:11.116Z,94.90
2022-10-22T21:01:48.104Z,95.10
2022-10-22T21:04:18.016Z,95.01
2022-10-22T21:06:46.477Z,94.98
2022-10-22T21:09:15.198Z,95.06
2022-10-22T21:11:43.842Z,94.93
2022-10-22T21:14:14.042Z,95.02
2022-10-22T21:16:44.115Z,95.27
2022-10-22T21:19:12.347Z,95.12
2022-10-22T21:21:40.843Z,95.18
2022-10-22T21:24:09.448Z,95.31
2022-10-22T21:26:38.484Z,94.94
2022-10-22T21:29:07.395Z,95.19
2022-10-22T21:31:36.078Z,95.09
2022-10-22T21:34:04.268Z,95.05
2022-10-22T21:36:34.914Z,95.01
2022-10-22T21:39:03.201Z,95.12
2022-10-22T21:41:31.349Z,95.06
2022-10-22T21:43:59.769Z,95.02
2022-10-22T21:46:28.972Z,95.08
2022-10-22T21:49:01.241Z,94.86
2022-10-22T21:51:32.387Z,95.34
2022-10-22T21:54:00.781Z,95.41
2022-10-22T21:56:32.827Z,95.21
2022-10-22T21:59:02.269Z,95.31
2022-10-22T22:01:30.715Z,95.30
2022-10-22T22:03:59.223Z,95.26
2022-10-22T22:06:30.717Z,95.33
2022-10-22T22:09:00.257Z,95.43
2022-10-22T22:11:28.670Z,95.51
2022-10-22T22:13:58.033Z,95.37
2022-10-22T22:16:29.632Z,95.38
2022-10-22T22:21:39.506Z,95.26
2022-10-22T22:24:11.027Z,95.34
2022-10-22T22:26:40.860Z,95.65
2022-10-22T22:29:10.589Z,95.84
2022-10-22T22:31:40.146Z,95.74
2022-10-22T22:34:12.855Z,95.65
2022-10-22T22:36:43.856Z,95.50
2022-10-22T22:39:14.481Z,95.68
2022-10-22T22:41:43.382Z,95.56
2022-10-22T22:44:12.289Z,95.50
2022-10-22T22:46:40.565Z,95.40
2022-10-22T22:49:09.100Z,95.83
2022-10-22T22:51:37.053Z,95.67
2022-10-22T22:54:05.086Z,95.64
2022-10-22T22:56:34.746Z,95.57
2022-10-22T22:59:04.945Z,95.65
2022-10-22T23:01:35.815Z,95.59
2022-10-22T23:04:12.174Z,95.77
2022-10-22T23:06:40.582Z,95.68
2022-10-22T23:09:11.173Z,95.59
2022-10-22T23:11:40.436Z,95.98
2022-10-22T23:14:11.748Z,95.91
2022-10-22T23:16:42.724Z,96.07
2022-10-22T23:19:10.731Z,96.05
2022-10-22T23:21:41.092Z,96.33
2022-10-22T23:24:14.015Z,96.37
2022-10-22T23:26:47.998Z,96.56
2022-10-22T23:29:19.069Z,96.69
2022-10-22T23:31:48.409Z,96.52
2022-10-22T23:34:25.328Z,96.41
2022-10-22T23:36:55.796Z,96.28
2022-10-22T23:39:26.485Z,96.19
2022-10-22T23:41:55.497Z,96.23
2022-10-22T23:44:24.305Z,96.22
2022-10-22T23:46:52.345Z,96.24
2022-10-22T23:49:20.218Z,96.23
2022-10-22T23:51:48.182Z,96.35
2022-10-22T23:54:18.649Z,96.44
2022-10-22T23:56:47.786Z,96.38
2022-10-22T23:59:16.248Z,96.38
